sensor_id;sensor_type;location;lat;lon;timestamp;P1;durP1;ratioP1;P2;durP2;ratioP2
27804;SDS011;15183;51.350;11.102;2023-02-15T00:01:59;43.50;;;9.45;;
27804;SDS011;15183;51.350;11.102;2023-02-15T00:04:25;39.50;;;8.93;;
27804;SDS011;15183;51.350;11.102;2023-02-15T00:07:12;53.38;;;8.07;;
27804;SDS011;15183;51.350;11.102;2023-02-15T00:09:40;29.33;;;8.27;;
27804;SDS011;15183;51.350;11.102;2023-02-15T00:12:07;34.60;;;7.65;;
27804;SDS011;15183;51.350;11.102;2023-02-15T00:14:35;24.58;;;7.20;;
27804;SDS011;15183;51.350;11.102;2023-02-15T00:17:02;23.23;;;6.38;;
27804;SDS011;15183;51.350;11.102;2023-02-15T00:19:29;19.08;;;6.65;;
27804;SDS011;15183;51.350;11.102;2023-02-15T00:21:55;15.40;;;8.02;;
27804;SDS011;15183;51.350;11.102;2023-02-15T00:24:21;28.67;;;8.27;;
27804;SDS011;15183;51.350;11.102;2023-02-15T00:26:48;25.63;;;7.47;;
27804;SDS011;15183;51.350;11.102;2023-02-15T00:29:15;19.23;;;6.72;;
27804;SDS011;15183;51.350;11.102;2023-02-15T00:31:43;28.75;;;7.28;;
27804;SDS011;15183;51.350;11.102;2023-02-15T00:34:16;17.92;;;7.80;;
27804;SDS011;15183;51.350;11.102;2023-02-15T00:36:47;32.35;;;8.10;;
27804;SDS011;15183;51.350;11.102;2023-02-15T00:39:14;36.85;;;8.80;;
27804;SDS011;15183;51.350;11.102;2023-02-15T00:41:42;30.42;;;8.35;;
27804;SDS011;15183;51.350;11.102;2023-02-15T00:44:09;33.88;;;7.10;;
27804;SDS011;15183;51.350;11.102;2023-02-15T00:46:35;28.83;;;8.02;;
27804;SDS011;15183;51.350;11.102;2023-02-15T00:49:03;31.27;;;8.35;;
27804;SDS011;15183;51.350;11.102;2023-02-15T00:51:30;28.80;;;7.05;;
27804;SDS011;15183;51.350;11.102;2023-02-15T00:53:57;17.33;;;7.78;;
27804;SDS011;15183;51.350;11.102;2023-02-15T00:56:24;15.18;;;7.53;;
27804;SDS011;15183;51.350;11.102;2023-02-15T00:58:50;41.65;;;7.40;;
27804;SDS011;15183;51.350;11.102;2023-02-15T01:01:17;26.30;;;7.85;;
27804;SDS011;15183;51.350;11.102;2023-02-15T01:03:45;18.92;;;7.97;;
27804;SDS011;15183;51.350;11.102;2023-02-15T01:06:12;19.98;;;8.90;;
27804;SDS011;15183;51.350;11.102;2023-02-15T01:08:43;12.82;;;7.18;;
27804;SDS011;15183;51.350;11.102;2023-02-15T01:11:13;32.28;;;7.78;;
27804;SDS011;15183;51.350;11.102;2023-02-15T01:16:18;23.20;;;7.20;;
27804;SDS011;15183;51.350;11.102;2023-02-15T01:18:45;33.25;;;9.20;;
27804;SDS011;15183;51.350;11.102;2023-02-15T01:21:13;20.00;;;7.43;;
27804;SDS011;15183;51.350;11.102;2023-02-15T01:23:46;17.05;;;8.43;;
27804;SDS011;15183;51.350;11.102;2023-02-15T01:26:13;23.00;;;7.72;;
27804;SDS011;15183;51.350;11.102;2023-02-15T01:28:40;15.45;;;9.43;;
27804;SDS011;15183;51.350;11.102;2023-02-15T01:31:11;29.30;;;9.18;;
27804;SDS011;15183;51.350;11.102;2023-02-15T01:33:42;24.27;;;9.35;;
27804;SDS011;15183;51.350;11.102;2023-02-15T01:36:09;26.73;;;8.77;;
27804;SDS011;15183;51.350;11.102;2023-02-15T01:38:36;30.10;;;9.15;;
27804;SDS011;15183;51.350;11.102;2023-02-15T01:41:02;15.95;;;7.93;;
27804;SDS011;15183;51.350;11.102;2023-02-15T01:43:55;30.33;;;7.45;;
27804;SDS011;15183;51.350;11.102;2023-02-15T01:46:58;18.30;;;7.65;;
27804;SDS011;15183;51.350;11.102;2023-02-15T01:49:19;21.63;;;8.10;;
27804;SDS011;15183;51.350;11.102;2023-02-15T01:51:49;17.13;;;7.22;;
27804;SDS011;15183;51.350;11.102;2023-02-15T01:54:22;23.27;;;7.40;;
27804;SDS011;15183;51.350;11.102;2023-02-15T01:56:55;13.00;;;7.95;;
27804;SDS011;15183;51.350;11.102;2023-02-15T01:59:28;41.13;;;7.60;;
27804;SDS011;15183;51.350;11.102;2023-02-15T02:01:56;30.60;;;8.10;;
27804;SDS011;15183;51.350;11.102;2023-02-15T02:04:48;17.92;;;8.55;;
27804;SDS011;15183;51.350;11.102;2023-02-15T02:07:16;28.58;;;7.25;;
27804;SDS011;15183;51.350;11.102;2023-02-15T02:09:46;24.70;;;7.70;;
27804;SDS011;15183;51.350;11.102;2023-02-15T02:12:13;11.02;;;7.00;;
27804;SDS011;15183;51.350;11.102;2023-02-15T02:14:44;12.02;;;7.28;;
27804;SDS011;15183;51.350;11.102;2023-02-15T02:17:26;16.90;;;8.35;;
27804;SDS011;15183;51.350;11.102;2023-02-15T02:23:24;16.45;;;7.78;;
27804;SDS011;15183;51.350;11.102;2023-02-15T02:32:31;29.25;;;8.10;;
27804;SDS011;15183;51.350;11.102;2023-02-15T02:46:51;44.42;;;7.57;;
27804;SDS011;15183;51.350;11.102;2023-02-15T02:49:30;54.08;;;7.38;;
27804;SDS011;15183;51.350;11.102;2023-02-15T02:52:06;31.42;;;7.93;;
27804;SDS011;15183;51.350;11.102;2023-02-15T02:55:01;35.90;;;8.10;;
27804;SDS011;15183;51.350;11.102;2023-02-15T02:57:40;38.33;;;7.90;;
27804;SDS011;15183;51.350;11.102;2023-02-15T03:00:35;58.45;;;7.30;;
27804;SDS011;15183;51.350;11.102;2023-02-15T03:03:11;74.53;;;8.82;;
27804;SDS011;15183;51.350;11.102;2023-02-15T03:05:53;54.38;;;9.18;;
27804;SDS011;15183;51.350;11.102;2023-02-15T03:08:26;26.52;;;8.05;;
27804;SDS011;15183;51.350;11.102;2023-02-15T03:11:03;51.40;;;7.93;;
27804;SDS011;15183;51.350;11.102;2023-02-15T03:13:30;92.55;;;7.78;;
27804;SDS011;15183;51.350;11.102;2023-02-15T03:15:58;21.65;;;6.95;;
27804;SDS011;15183;51.350;11.102;2023-02-15T03:18:46;30.45;;;6.90;;
27804;SDS011;15183;51.350;11.102;2023-02-15T03:21:25;32.85;;;6.95;;
27804;SDS011;15183;51.350;11.102;2023-02-15T03:26:40;38.92;;;7.72;;
27804;SDS011;15183;51.350;11.102;2023-02-15T03:29:11;55.05;;;7.03;;
27804;SDS011;15183;51.350;11.102;2023-02-15T03:31:40;34.05;;;6.70;;
27804;SDS011;15183;51.350;11.102;2023-02-15T03:34:11;39.75;;;7.43;;
27804;SDS011;15183;51.350;11.102;2023-02-15T03:39:30;47.70;;;7.15;;
27804;SDS011;15183;51.350;11.102;2023-02-15T03:45:02;13.13;;;6.65;;
27804;SDS011;15183;51.350;11.102;2023-02-15T03:47:35;10.63;;;6.97;;
27804;SDS011;15183;51.350;11.102;2023-02-15T03:50:07;39.03;;;7.40;;
27804;SDS011;15183;51.350;11.102;2023-02-15T03:53:18;28.25;;;8.40;;
27804;SDS011;15183;51.350;11.102;2023-02-15T03:55:52;24.92;;;6.72;;
27804;SDS011;15183;51.350;11.102;2023-02-15T03:58:20;27.63;;;7.60;;
27804;SDS011;15183;51.350;11.102;2023-02-15T04:01:10;13.82;;;7.10;;
27804;SDS011;15183;51.350;11.102;2023-02-15T04:04:20;26.85;;;7.50;;
27804;SDS011;15183;51.350;11.102;2023-02-15T04:06:49;22.23;;;7.50;;
27804;SDS011;15183;51.350;11.102;2023-02-15T04:09:15;45.53;;;7.95;;
27804;SDS011;15183;51.350;11.102;2023-02-15T04:12:01;40.80;;;6.55;;
27804;SDS011;15183;51.350;11.102;2023-02-15T04:14:27;23.60;;;7.75;;
27804;SDS011;15183;51.350;11.102;2023-02-15T04:17:12;33.05;;;8.63;;
27804;SDS011;15183;51.350;11.102;2023-02-15T04:19:38;33.08;;;13.50;;
27804;SDS011;15183;51.350;11.102;2023-02-15T04:22:23;47.47;;;15.45;;
27804;SDS011;15183;51.350;11.102;2023-02-15T04:25:07;39.13;;;13.10;;
27804;SDS011;15183;51.350;11.102;2023-02-15T04:27:40;21.67;;;10.05;;
27804;SDS011;15183;51.350;11.102;2023-02-15T04:30:10;30.52;;;8.38;;
27804;SDS011;15183;51.350;11.102;2023-02-15T04:32:38;37.25;;;12.55;;
27804;SDS011;15183;51.350;11.102;2023-02-15T04:35:05;29.35;;;9.35;;
27804;SDS011;15183;51.350;11.102;2023-02-15T04:37:32;40.67;;;7.72;;
27804;SDS011;15183;51.350;11.102;2023-02-15T04:39:59;37.30;;;7.35;;
27804;SDS011;15183;51.350;11.102;2023-02-15T04:42:25;27.83;;;7.65;;
27804;SDS011;15183;51.350;11.102;2023-02-15T04:44:53;20.73;;;7.47;;
27804;SDS011;15183;51.350;11.102;2023-02-15T04:47:19;20.85;;;7.70;;
27804;SDS011;15183;51.350;11.102;2023-02-15T04:49:46;13.88;;;6.53;;
27804;SDS011;15183;51.350;11.102;2023-02-15T04:52:12;17.00;;;6.40;;
27804;SDS011;15183;51.350;11.102;2023-02-15T04:54:39;7.95;;;5.95;;
27804;SDS011;15183;51.350;11.102;2023-02-15T04:57:05;18.75;;;7.63;;
27804;SDS011;15183;51.350;11.102;2023-02-15T04:59:32;26.45;;;6.90;;
27804;SDS011;15183;51.350;11.102;2023-02-15T05:01:59;16.73;;;6.70;;
27804;SDS011;15183;51.350;11.102;2023-02-15T05:04:25;19.33;;;6.90;;
27804;SDS011;15183;51.350;11.102;2023-02-15T05:06:51;22.08;;;6.88;;
27804;SDS011;15183;51.350;11.102;2023-02-15T05:09:18;22.85;;;6.65;;
27804;SDS011;15183;51.350;11.102;2023-02-15T05:11:44;13.60;;;6.82;;
27804;SDS011;15183;51.350;11.102;2023-02-15T05:14:11;17.02;;;6.47;;
27804;SDS011;15183;51.350;11.102;2023-02-15T05:16:37;16.35;;;6.97;;
27804;SDS011;15183;51.350;11.102;2023-02-15T05:19:04;12.68;;;6.65;;
27804;SDS011;15183;51.350;11.102;2023-02-15T05:21:31;15.18;;;7.05;;
27804;SDS011;15183;51.350;11.102;2023-02-15T05:23:58;24.23;;;6.75;;
27804;SDS011;15183;51.350;11.102;2023-02-15T05:26:25;11.40;;;5.93;;
27804;SDS011;15183;51.350;11.102;2023-02-15T05:29:10;9.68;;;5.72;;
27804;SDS011;15183;51.350;11.102;2023-02-15T05:31:36;24.30;;;5.88;;
27804;SDS011;15183;51.350;11.102;2023-02-15T05:34:03;26.48;;;6.53;;
27804;SDS011;15183;51.350;11.102;2023-02-15T05:36:29;22.25;;;6.32;;
27804;SDS011;15183;51.350;11.102;2023-02-15T05:38:56;8.60;;;6.22;;
27804;SDS011;15183;51.350;11.102;2023-02-15T05:41:22;19.35;;;6.13;;
27804;SDS011;15183;51.350;11.102;2023-02-15T05:43:49;9.15;;;5.68;;
27804;SDS011;15183;51.350;11.102;2023-02-15T05:46:16;20.02;;;7.18;;
27804;SDS011;15183;51.350;11.102;2023-02-15T05:48:42;10.38;;;5.97;;
27804;SDS011;15183;51.350;11.102;2023-02-15T05:51:09;15.25;;;6.63;;
27804;SDS011;15183;51.350;11.102;2023-02-15T05:53:42;26.67;;;6.32;;
27804;SDS011;15183;51.350;11.102;2023-02-15T05:56:09;16.05;;;6.10;;
27804;SDS011;15183;51.350;11.102;2023-02-15T05:58:38;37.63;;;6.10;;
27804;SDS011;15183;51.350;11.102;2023-02-15T06:01:10;22.75;;;6.28;;
27804;SDS011;15183;51.350;11.102;2023-02-15T06:03:39;13.23;;;6.20;;
27804;SDS011;15183;51.350;11.102;2023-02-15T06:06:06;14.30;;;5.90;;
27804;SDS011;15183;51.350;11.102;2023-02-15T06:08:33;13.85;;;5.63;;
27804;SDS011;15183;51.350;11.102;2023-02-15T06:11:01;18.83;;;5.78;;
27804;SDS011;15183;51.350;11.102;2023-02-15T06:13:29;34.25;;;6.13;;
27804;SDS011;15183;51.350;11.102;2023-02-15T06:15:55;13.30;;;5.63;;
27804;SDS011;15183;51.350;11.102;2023-02-15T06:18:22;14.63;;;5.25;;
27804;SDS011;15183;51.350;11.102;2023-02-15T06:20:48;60.20;;;6.25;;
27804;SDS011;15183;51.350;11.102;2023-02-15T06:23:15;32.83;;;5.43;;
27804;SDS011;15183;51.350;11.102;2023-02-15T06:25:41;21.77;;;6.22;;
27804;SDS011;15183;51.350;11.102;2023-02-15T06:28:09;28.50;;;6.53;;
27804;SDS011;15183;51.350;11.102;2023-02-15T06:30:35;40.28;;;8.38;;
27804;SDS011;15183;51.350;11.102;2023-02-15T06:33:02;23.95;;;10.68;;
27804;SDS011;15183;51.350;11.102;2023-02-15T06:35:28;39.97;;;9.38;;
27804;SDS011;15183;51.350;11.102;2023-02-15T06:37:55;22.67;;;8.32;;
27804;SDS011;15183;51.350;11.102;2023-02-15T06:40:21;27.77;;;9.88;;
27804;SDS011;15183;51.350;11.102;2023-02-15T06:42:48;21.92;;;8.75;;
27804;SDS011;15183;51.350;11.102;2023-02-15T06:45:14;42.40;;;9.25;;
27804;SDS011;15183;51.350;11.102;2023-02-15T06:47:40;26.25;;;8.52;;
27804;SDS011;15183;51.350;11.102;2023-02-15T06:50:07;43.00;;;10.18;;
27804;SDS011;15183;51.350;11.102;2023-02-15T06:52:34;23.08;;;10.73;;
27804;SDS011;15183;51.350;11.102;2023-02-15T06:55:01;38.83;;;10.15;;
27804;SDS011;15183;51.350;11.102;2023-02-15T06:57:27;29.73;;;8.35;;
27804;SDS011;15183;51.350;11.102;2023-02-15T06:59:54;20.00;;;8.20;;
27804;SDS011;15183;51.350;11.102;2023-02-15T07:02:20;22.45;;;7.80;;
27804;SDS011;15183;51.350;11.102;2023-02-15T07:04:46;32.08;;;8.85;;
27804;SDS011;15183;51.350;11.102;2023-02-15T07:07:13;78.80;;;10.32;;
27804;SDS011;15183;51.350;11.102;2023-02-15T07:09:39;34.90;;;7.18;;
27804;SDS011;15183;51.350;11.102;2023-02-15T07:12:06;33.97;;;8.60;;
27804;SDS011;15183;51.350;11.102;2023-02-15T07:14:51;37.80;;;8.48;;
27804;SDS011;15183;51.350;11.102;2023-02-15T07:17:17;32.60;;;6.88;;
27804;SDS011;15183;51.350;11.102;2023-02-15T07:19:44;29.65;;;9.65;;
27804;SDS011;15183;51.350;11.102;2023-02-15T07:22:10;42.97;;;8.18;;
27804;SDS011;15183;51.350;11.102;2023-02-15T07:24:37;23.30;;;11.45;;
27804;SDS011;15183;51.350;11.102;2023-02-15T07:27:03;44.40;;;10.00;;
27804;SDS011;15183;51.350;11.102;2023-02-15T07:29:31;45.10;;;9.35;;
27804;SDS011;15183;51.350;11.102;2023-02-15T07:31:58;47.72;;;8.13;;
27804;SDS011;15183;51.350;11.102;2023-02-15T07:34:24;15.80;;;7.88;;
27804;SDS011;15183;51.350;11.102;2023-02-15T07:36:50;47.75;;;8.25;;
27804;SDS011;15183;51.350;11.102;2023-02-15T07:39:17;46.55;;;10.35;;
27804;SDS011;15183;51.350;11.102;2023-02-15T07:41:43;31.02;;;8.45;;
27804;SDS011;15183;51.350;11.102;2023-02-15T07:44:13;64.45;;;8.65;;
27804;SDS011;15183;51.350;11.102;2023-02-15T07:46:40;58.15;;;8.25;;
27804;SDS011;15183;51.350;11.102;2023-02-15T07:49:07;26.38;;;10.35;;
27804;SDS011;15183;51.350;11.102;2023-02-15T07:51:33;23.08;;;8.95;;
27804;SDS011;15183;51.350;11.102;2023-02-15T07:54:00;27.50;;;9.45;;
27804;SDS011;15183;51.350;11.102;2023-02-15T07:56:27;37.45;;;10.38;;
27804;SDS011;15183;51.350;11.102;2023-02-15T07:58:53;58.08;;;10.80;;
27804;SDS011;15183;51.350;11.102;2023-02-15T08:01:33;66.15;;;14.35;;
27804;SDS011;15183;51.350;11.102;2023-02-15T08:04:02;57.40;;;12.20;;
27804;SDS011;15183;51.350;11.102;2023-02-15T08:06:32;61.28;;;13.70;;
27804;SDS011;15183;51.350;11.102;2023-02-15T08:09:00;35.13;;;11.57;;
27804;SDS011;15183;51.350;11.102;2023-02-15T08:11:34;28.55;;;12.73;;
27804;SDS011;15183;51.350;11.102;2023-02-15T08:14:10;29.65;;;14.73;;
27804;SDS011;15183;51.350;11.102;2023-02-15T08:19:11;26.52;;;9.13;;
27804;SDS011;15183;51.350;11.102;2023-02-15T08:21:54;26.42;;;9.10;;
27804;SDS011;15183;51.350;11.102;2023-02-15T08:24:33;28.10;;;10.60;;
27804;SDS011;15183;51.350;11.102;2023-02-15T08:27:03;31.00;;;11.35;;
27804;SDS011;15183;51.350;11.102;2023-02-15T08:29:30;27.45;;;10.52;;
27804;SDS011;15183;51.350;11.102;2023-02-15T08:31:59;29.83;;;13.60;;
27804;SDS011;15183;51.350;11.102;2023-02-15T08:34:35;27.33;;;15.27;;
27804;SDS011;15183;51.350;11.102;2023-02-15T08:37:04;33.55;;;17.08;;
27804;SDS011;15183;51.350;11.102;2023-02-15T08:39:31;27.83;;;17.25;;
27804;SDS011;15183;51.350;11.102;2023-02-15T08:41:58;25.63;;;15.45;;
27804;SDS011;15183;51.350;11.102;2023-02-15T08:44:24;35.10;;;15.30;;
27804;SDS011;15183;51.350;11.102;2023-02-15T08:46:51;29.00;;;16.08;;
27804;SDS011;15183;51.350;11.102;2023-02-15T08:49:21;26.58;;;15.80;;
27804;SDS011;15183;51.350;11.102;2023-02-15T08:51:48;30.73;;;18.20;;
27804;SDS011;15183;51.350;11.102;2023-02-15T08:54:16;21.25;;;14.07;;
27804;SDS011;15183;51.350;11.102;2023-02-15T08:56:46;18.42;;;12.02;;
27804;SDS011;15183;51.350;11.102;2023-02-15T08:59:16;17.60;;;11.27;;
27804;SDS011;15183;51.350;11.102;2023-02-15T09:01:48;22.83;;;13.60;;
27804;SDS011;15183;51.350;11.102;2023-02-15T09:04:16;22.63;;;14.13;;
27804;SDS011;15183;51.350;11.102;2023-02-15T09:06:44;19.88;;;12.35;;
27804;SDS011;15183;51.350;11.102;2023-02-15T09:09:11;27.40;;;15.50;;
27804;SDS011;15183;51.350;11.102;2023-02-15T09:11:41;26.08;;;16.00;;
27804;SDS011;15183;51.350;11.102;2023-02-15T09:14:13;22.73;;;14.07;;
27804;SDS011;15183;51.350;11.102;2023-02-15T09:16:43;27.73;;;16.38;;
27804;SDS011;15183;51.350;11.102;2023-02-15T09:19:14;21.73;;;13.18;;
27804;SDS011;15183;51.350;11.102;2023-02-15T09:21:43;26.38;;;16.95;;
27804;SDS011;15183;51.350;11.102;2023-02-15T09:24:10;32.55;;;18.77;;
27804;SDS011;15183;51.350;11.102;2023-02-15T09:26:40;31.48;;;18.92;;
27804;SDS011;15183;51.350;11.102;2023-02-15T09:29:12;27.17;;;16.58;;
27804;SDS011;15183;51.350;11.102;2023-02-15T09:31:40;30.00;;;17.60;;
27804;SDS011;15183;51.350;11.102;2023-02-15T09:34:13;38.75;;;22.67;;
27804;SDS011;15183;51.350;11.102;2023-02-15T09:36:42;35.75;;;21.40;;
27804;SDS011;15183;51.350;11.102;2023-02-15T09:45:01;27.88;;;16.05;;
27804;SDS011;15183;51.350;11.102;2023-02-15T09:59:06;24.77;;;15.23;;
27804;SDS011;15183;51.350;11.102;2023-02-15T10:10:51;17.85;;;10.10;;
27804;SDS011;15183;51.350;11.102;2023-02-15T10:17:00;19.58;;;12.05;;
27804;SDS011;15183;51.350;11.102;2023-02-15T10:20:00;21.67;;;13.38;;
27804;SDS011;15183;51.350;11.102;2023-02-15T10:25:46;15.25;;;11.77;;
27804;SDS011;15183;51.350;11.102;2023-02-15T10:31:27;15.77;;;10.48;;
27804;SDS011;15183;51.350;11.102;2023-02-15T10:45:47;21.23;;;13.40;;
27804;SDS011;15183;51.350;11.102;2023-02-15T10:48:34;30.92;;;18.30;;
27804;SDS011;15183;51.350;11.102;2023-02-15T10:54:45;25.98;;;16.75;;
27804;SDS011;15183;51.350;11.102;2023-02-15T11:01:24;25.75;;;16.02;;
27804;SDS011;15183;51.350;11.102;2023-02-15T11:13:28;46.53;;;27.27;;
27804;SDS011;15183;51.350;11.102;2023-02-15T11:16:01;28.98;;;18.50;;
27804;SDS011;15183;51.350;11.102;2023-02-15T11:21:08;18.85;;;11.52;;
27804;SDS011;15183;51.350;11.102;2023-02-15T11:23:46;32.30;;;19.88;;
27804;SDS011;15183;51.350;11.102;2023-02-15T11:26:15;46.10;;;27.67;;
27804;SDS011;15183;51.350;11.102;2023-02-15T11:35:26;24.45;;;16.80;;
27804;SDS011;15183;51.350;11.102;2023-02-15T11:38:06;40.45;;;23.60;;
27804;SDS011;15183;51.350;11.102;2023-02-15T11:41:45;21.83;;;13.52;;
27804;SDS011;15183;51.350;11.102;2023-02-15T11:43:50;17.40;;;12.40;;
27804;SDS011;15183;51.350;11.102;2023-02-15T11:46:32;31.48;;;19.02;;
27804;SDS011;15183;51.350;11.102;2023-02-15T11:48:58;26.80;;;17.70;;
27804;SDS011;15183;51.350;11.102;2023-02-15T11:51:25;35.05;;;22.20;;
27804;SDS011;15183;51.350;11.102;2023-02-15T11:53:54;31.77;;;19.50;;
27804;SDS011;15183;51.350;11.102;2023-02-15T11:56:22;25.88;;;17.35;;
27804;SDS011;15183;51.350;11.102;2023-02-15T11:58:58;24.00;;;15.75;;
27804;SDS011;15183;51.350;11.102;2023-02-15T12:12:28;15.77;;;10.68;;
27804;SDS011;15183;51.350;11.102;2023-02-15T12:14:59;22.70;;;14.80;;
27804;SDS011;15183;51.350;11.102;2023-02-15T12:17:30;14.57;;;10.45;;
27804;SDS011;15183;51.350;11.102;2023-02-15T12:22:45;23.95;;;15.23;;
27804;SDS011;15183;51.350;11.102;2023-02-15T12:25:28;15.77;;;10.40;;
27804;SDS011;15183;51.350;11.102;2023-02-15T12:28:30;18.98;;;12.13;;
27804;SDS011;15183;51.350;11.102;2023-02-15T12:31:01;13.73;;;9.25;;
27804;SDS011;15183;51.350;11.102;2023-02-15T12:33:34;16.15;;;11.48;;
27804;SDS011;15183;51.350;11.102;2023-02-15T12:36:22;14.32;;;9.75;;
27804;SDS011;15183;51.350;11.102;2023-02-15T12:41:43;15.73;;;10.38;;
27804;SDS011;15183;51.350;11.102;2023-02-15T12:44:37;21.52;;;13.95;;
27804;SDS011;15183;51.350;11.102;2023-02-15T12:49:43;13.02;;;9.50;;
27804;SDS011;15183;51.350;11.102;2023-02-15T12:52:32;11.27;;;7.95;;
27804;SDS011;15183;51.350;11.102;2023-02-15T12:57:37;12.20;;;6.95;;
27804;SDS011;15183;51.350;11.102;2023-02-15T13:00:04;10.63;;;7.15;;
27804;SDS011;15183;51.350;11.102;2023-02-15T13:07:53;11.20;;;7.50;;
27804;SDS011;15183;51.350;11.102;2023-02-15T13:10:25;10.57;;;7.18;;
27804;SDS011;15183;51.350;11.102;2023-02-15T13:13:01;9.27;;;7.05;;
27804;SDS011;15183;51.350;11.102;2023-02-15T13:15:35;11.48;;;7.50;;
27804;SDS011;15183;51.350;11.102;2023-02-15T13:18:10;9.73;;;6.75;;
27804;SDS011;15183;51.350;11.102;2023-02-15T13:20:42;10.82;;;7.05;;
27804;SDS011;15183;51.350;11.102;2023-02-15T13:23:17;12.63;;;7.10;;
27804;SDS011;15183;51.350;11.102;2023-02-15T13:25:55;8.77;;;6.72;;
27804;SDS011;15183;51.350;11.102;2023-02-15T13:28:33;9.52;;;6.70;;
27804;SDS011;15183;51.350;11.102;2023-02-15T13:31:15;9.57;;;6.05;;
27804;SDS011;15183;51.350;11.102;2023-02-15T13:33:47;7.82;;;5.55;;
27804;SDS011;15183;51.350;11.102;2023-02-15T13:39:13;8.57;;;5.43;;
27804;SDS011;15183;51.350;11.102;2023-02-15T13:47:43;9.80;;;6.30;;
27804;SDS011;15183;51.350;11.102;2023-02-15T14:06:00;7.90;;;5.85;;
27804;SDS011;15183;51.350;11.102;2023-02-15T14:08:55;8.35;;;5.05;;
27804;SDS011;15183;51.350;11.102;2023-02-15T14:18:25;7.32;;;5.32;;
27804;SDS011;15183;51.350;11.102;2023-02-15T14:21:21;8.23;;;6.00;;
27804;SDS011;15183;51.350;11.102;2023-02-15T14:24:18;6.93;;;5.43;;
27804;SDS011;15183;51.350;11.102;2023-02-15T14:27:05;7.45;;;5.95;;
27804;SDS011;15183;51.350;11.102;2023-02-15T14:30:17;9.98;;;6.13;;
27804;SDS011;15183;51.350;11.102;2023-02-15T14:32:55;8.57;;;6.20;;
27804;SDS011;15183;51.350;11.102;2023-02-15T14:35:41;9.13;;;5.10;;
27804;SDS011;15183;51.350;11.102;2023-02-15T14:38:19;8.52;;;6.40;;
27804;SDS011;15183;51.350;11.102;2023-02-15T14:41:29;10.15;;;5.55;;
27804;SDS011;15183;51.350;11.102;2023-02-15T14:44:15;7.82;;;5.28;;
27804;SDS011;15183;51.350;11.102;2023-02-15T14:47:04;7.70;;;5.75;;
27804;SDS011;15183;51.350;11.102;2023-02-15T14:49:36;9.02;;;6.07;;
27804;SDS011;15183;51.350;11.102;2023-02-15T14:52:08;9.50;;;5.93;;
27804;SDS011;15183;51.350;11.102;2023-02-15T15:02:21;9.32;;;5.45;;
27804;SDS011;15183;51.350;11.102;2023-02-15T15:12:49;10.68;;;8.52;;
27804;SDS011;15183;51.350;11.102;2023-02-15T15:18:05;11.27;;;8.52;;
27804;SDS011;15183;51.350;11.102;2023-02-15T15:31:08;10.00;;;7.55;;
27804;SDS011;15183;51.350;11.102;2023-02-15T15:40:35;9.88;;;6.15;;
27804;SDS011;15183;51.350;11.102;2023-02-15T15:46:20;9.15;;;6.63;;
27804;SDS011;15183;51.350;11.102;2023-02-15T15:49:05;9.13;;;6.55;;
27804;SDS011;15183;51.350;11.102;2023-02-15T15:51:41;11.48;;;7.13;;
27804;SDS011;15183;51.350;11.102;2023-02-15T15:54:16;8.23;;;6.60;;
27804;SDS011;15183;51.350;11.102;2023-02-15T15:56:47;9.80;;;7.00;;
27804;SDS011;15183;51.350;11.102;2023-02-15T15:59:28;11.63;;;8.13;;
27804;SDS011;15183;51.350;11.102;2023-02-15T16:02:07;9.20;;;6.93;;
27804;SDS011;15183;51.350;11.102;2023-02-15T16:04:38;8.63;;;6.72;;
27804;SDS011;15183;51.350;11.102;2023-02-15T16:09:59;8.85;;;6.97;;
27804;SDS011;15183;51.350;11.102;2023-02-15T16:12:27;11.75;;;7.30;;
27804;SDS011;15183;51.350;11.102;2023-02-15T16:14:57;15.05;;;9.18;;
27804;SDS011;15183;51.350;11.102;2023-02-15T16:17:38;10.00;;;8.00;;
27804;SDS011;15183;51.350;11.102;2023-02-15T16:22:48;10.15;;;7.75;;
27804;SDS011;15183;51.350;11.102;2023-02-15T16:28:53;11.18;;;7.47;;
27804;SDS011;15183;51.350;11.102;2023-02-15T16:31:21;11.65;;;8.05;;
27804;SDS011;15183;51.350;11.102;2023-02-15T16:33:52;11.82;;;7.60;;
27804;SDS011;15183;51.350;11.102;2023-02-15T16:41:15;56.38;;;32.50;;
27804;SDS011;15183;51.350;11.102;2023-02-15T16:43:54;37.58;;;28.20;;
27804;SDS011;15183;51.350;11.102;2023-02-15T16:46:32;24.92;;;18.13;;
27804;SDS011;15183;51.350;11.102;2023-02-15T16:49:20;15.40;;;11.63;;
27804;SDS011;15183;51.350;11.102;2023-02-15T16:51:54;14.02;;;9.45;;
27804;SDS011;15183;51.350;11.102;2023-02-15T16:54:28;13.63;;;9.20;;
27804;SDS011;15183;51.350;11.102;2023-02-15T16:56:57;17.33;;;10.02;;
27804;SDS011;15183;51.350;11.102;2023-02-15T16:59:34;19.27;;;12.90;;
27804;SDS011;15183;51.350;11.102;2023-02-15T17:02:12;18.30;;;12.73;;
27804;SDS011;15183;51.350;11.102;2023-02-15T17:05:01;16.80;;;11.45;;
27804;SDS011;15183;51.350;11.102;2023-02-15T17:07:39;12.27;;;8.60;;
27804;SDS011;15183;51.350;11.102;2023-02-15T17:10:32;13.02;;;8.80;;
27804;SDS011;15183;51.350;11.102;2023-02-15T17:13:24;15.13;;;9.95;;
27804;SDS011;15183;51.350;11.102;2023-02-15T17:18:23;20.05;;;11.18;;
27804;SDS011;15183;51.350;11.102;2023-02-15T17:20:56;18.17;;;10.93;;
27804;SDS011;15183;51.350;11.102;2023-02-15T17:23:39;15.95;;;10.57;;
27804;SDS011;15183;51.350;11.102;2023-02-15T17:26:12;23.08;;;14.85;;
27804;SDS011;15183;51.350;11.102;2023-02-15T17:28:53;18.27;;;12.27;;
27804;SDS011;15183;51.350;11.102;2023-02-15T17:31:26;16.90;;;11.02;;
27804;SDS011;15183;51.350;11.102;2023-02-15T17:33:58;14.77;;;8.80;;
27804;SDS011;15183;51.350;11.102;2023-02-15T17:36:27;16.75;;;10.75;;
27804;SDS011;15183;51.350;11.102;2023-02-15T17:41:26;16.73;;;11.05;;
27804;SDS011;15183;51.350;11.102;2023-02-15T17:44:02;22.15;;;13.15;;
27804;SDS011;15183;51.350;11.102;2023-02-15T17:46:33;23.30;;;13.35;;
27804;SDS011;15183;51.350;11.102;2023-02-15T17:49:02;23.45;;;14.63;;
27804;SDS011;15183;51.350;11.102;2023-02-15T17:51:30;19.13;;;12.05;;
27804;SDS011;15183;51.350;11.102;2023-02-15T17:53:57;19.80;;;12.93;;
27804;SDS011;15183;51.350;11.102;2023-02-15T17:56:42;21.15;;;12.98;;
27804;SDS011;15183;51.350;11.102;2023-02-15T17:59:09;22.00;;;12.95;;
27804;SDS011;15183;51.350;11.102;2023-02-15T18:01:38;38.30;;;20.88;;
27804;SDS011;15183;51.350;11.102;2023-02-15T18:04:31;34.17;;;18.58;;
27804;SDS011;15183;51.350;11.102;2023-02-15T18:07:20;36.70;;;20.85;;
27804;SDS011;15183;51.350;11.102;2023-02-15T18:10:12;25.50;;;15.57;;
27804;SDS011;15183;51.350;11.102;2023-02-15T18:13:02;23.15;;;14.95;;
27804;SDS011;15183;51.350;11.102;2023-02-15T18:15:29;27.45;;;15.88;;
27804;SDS011;15183;51.350;11.102;2023-02-15T18:17:55;23.35;;;14.65;;
27804;SDS011;15183;51.350;11.102;2023-02-15T18:23:01;25.52;;;14.70;;
27804;SDS011;15183;51.350;11.102;2023-02-15T18:25:28;27.60;;;16.27;;
27804;SDS011;15183;51.350;11.102;2023-02-15T18:27:54;24.13;;;13.75;;
27804;SDS011;15183;51.350;11.102;2023-02-15T18:30:22;23.85;;;13.93;;
27804;SDS011;15183;51.350;11.102;2023-02-15T18:32:52;26.13;;;15.13;;
27804;SDS011;15183;51.350;11.102;2023-02-15T18:35:22;23.50;;;14.27;;
27804;SDS011;15183;51.350;11.102;2023-02-15T18:37:56;22.67;;;14.07;;
27804;SDS011;15183;51.350;11.102;2023-02-15T18:40:26;22.75;;;13.48;;